sensor_id;sensor_type;location;lat;lon;timestamp;temperature;humidity
61412;DHT22;47278;49.732;7.690;2024-01-25T00:01:57;10.00;99.90
61412;DHT22;47278;49.732;7.690;2024-01-25T00:04:23;10.10;99.90
61412;DHT22;47278;49.732;7.690;2024-01-25T00:06:50;10.00;99.90
61412;DHT22;47278;49.732;7.690;2024-01-25T00:09:15;10.00;99.90
61412;DHT22;47278;49.732;7.690;2024-01-25T00:11:42;10.00;99.90
61412;DHT22;47278;49.732;7.690;2024-01-25T00:14:08;9.80;99.90
61412;DHT22;47278;49.732;7.690;2024-01-25T00:16:33;10.00;99.90
61412;DHT22;47278;49.732;7.690;2024-01-25T00:18:59;10.00;99.90
61412;DHT22;47278;49.732;7.690;2024-01-25T00:21:26;9.90;99.90
61412;DHT22;47278;49.732;7.690;2024-01-25T00:23:51;9.90;99.90
61412;DHT22;47278;49.732;7.690;2024-01-25T00:26:17;9.80;99.90
61412;DHT22;47278;49.732;7.690;2024-01-25T00:28:42;9.90;99.90
61412;DHT22;47278;49.732;7.690;2024-01-25T00:31:08;9.80;99.90
61412;DHT22;47278;49.732;7.690;2024-01-25T00:33:33;9.60;99.90
61412;DHT22;47278;49.732;7.690;2024-01-25T00:36:00;9.70;99.90
61412;DHT22;47278;49.732;7.690;2024-01-25T00:38:26;9.60;99.90
61412;DHT22;47278;49.732;7.690;2024-01-25T00:40:52;9.60;99.90
61412;DHT22;47278;49.732;7.690;2024-01-25T00:43:18;9.50;99.90
61412;DHT22;47278;49.732;7.690;2024-01-25T00:45:43;9.50;99.90
61412;DHT22;47278;49.732;7.690;2024-01-25T00:48:09;9.30;99.90
61412;DHT22;47278;49.732;7.690;2024-01-25T00:50:35;9.20;99.90
61412;DHT22;47278;49.732;7.690;2024-01-25T00:53:00;9.00;99.90
61412;DHT22;47278;49.732;7.690;2024-01-25T00:55:28;9.20;99.90
61412;DHT22;47278;49.732;7.690;2024-01-25T00:57:53;9.00;99.90
61412;DHT22;47278;49.732;7.690;2024-01-25T01:00:20;8.90;99.90
61412;DHT22;47278;49.732;7.690;2024-01-25T01:02:45;9.30;99.90
61412;DHT22;47278;49.732;7.690;2024-01-25T01:05:11;9.20;99.90
61412;DHT22;47278;49.732;7.690;2024-01-25T01:07:38;9.20;99.90
61412;DHT22;47278;49.732;7.690;2024-01-25T01:10:06;9.10;99.90
61412;DHT22;47278;49.732;7.690;2024-01-25T01:12:34;9.00;99.90
61412;DHT22;47278;49.732;7.690;2024-01-25T01:14:59;9.10;99.90
61412;DHT22;47278;49.732;7.690;2024-01-25T01:17:25;9.00;99.90
61412;DHT22;47278;49.732;7.690;2024-01-25T01:19:51;9.00;99.90
61412;DHT22;47278;49.732;7.690;2024-01-25T01:22:18;9.10;99.90
61412;DHT22;47278;49.732;7.690;2024-01-25T01:24:43;9.00;99.90
61412;DHT22;47278;49.732;7.690;2024-01-25T01:27:09;8.90;99.90
61412;DHT22;47278;49.732;7.690;2024-01-25T01:29:35;8.80;99.90
61412;DHT22;47278;49.732;7.690;2024-01-25T01:32:01;8.60;99.90
61412;DHT22;47278;49.732;7.690;2024-01-25T01:34:28;8.30;99.90
61412;DHT22;47278;49.732;7.690;2024-01-25T01:36:53;8.10;99.90
61412;DHT22;47278;49.732;7.690;2024-01-25T01:39:19;8.00;99.90
61412;DHT22;47278;49.732;7.690;2024-01-25T01:41:48;7.90;99.90
61412;DHT22;47278;49.732;7.690;2024-01-25T01:44:14;7.80;99.90
61412;DHT22;47278;49.732;7.690;2024-01-25T01:46:40;7.60;99.90
61412;DHT22;47278;49.732;7.690;2024-01-25T01:49:11;7.50;99.90
61412;DHT22;47278;49.732;7.690;2024-01-25T01:51:38;7.40;99.90
61412;DHT22;47278;49.732;7.690;2024-01-25T01:54:06;7.30;99.90
61412;DHT22;47278;49.732;7.690;2024-01-25T01:56:32;7.10;99.90
61412;DHT22;47278;49.732;7.690;2024-01-25T01:58:58;7.10;99.90
61412;DHT22;47278;49.732;7.690;2024-01-25T02:01:24;7.30;99.90
61412;DHT22;47278;49.732;7.690;2024-01-25T02:03:51;7.10;99.90
61412;DHT22;47278;49.732;7.690;2024-01-25T02:06:17;6.90;99.90
61412;DHT22;47278;49.732;7.690;2024-01-25T02:08:42;6.90;99.90
61412;DHT22;47278;49.732;7.690;2024-01-25T02:11:12;6.80;99.90
61412;DHT22;47278;49.732;7.690;2024-01-25T02:13:37;6.80;99.90
61412;DHT22;47278;49.732;7.690;2024-01-25T02:16:03;6.70;99.90
61412;DHT22;47278;49.732;7.690;2024-01-25T02:18:29;6.70;99.90
61412;DHT22;47278;49.732;7.690;2024-01-25T02:20:56;6.70;99.90
61412;DHT22;47278;49.732;7.690;2024-01-25T02:23:21;6.50;99.90
61412;DHT22;47278;49.732;7.690;2024-01-25T02:25:47;6.20;99.90
61412;DHT22;47278;49.732;7.690;2024-01-25T02:28:13;6.10;99.90
61412;DHT22;47278;49.732;7.690;2024-01-25T02:30:38;6.10;99.90
61412;DHT22;47278;49.732;7.690;2024-01-25T02:33:04;5.90;99.90
61412;DHT22;47278;49.732;7.690;2024-01-25T02:35:29;5.80;99.90
61412;DHT22;47278;49.732;7.690;2024-01-25T02:37:55;5.60;99.90
61412;DHT22;47278;49.732;7.690;2024-01-25T02:40:20;5.60;99.90
61412;DHT22;47278;49.732;7.690;2024-01-25T02:42:46;5.70;99.90
61412;DHT22;47278;49.732;7.690;2024-01-25T02:45:11;5.80;99.90
61412;DHT22;47278;49.732;7.690;2024-01-25T02:47:38;5.70;99.90
61412;DHT22;47278;49.732;7.690;2024-01-25T02:50:04;5.70;99.90
61412;DHT22;47278;49.732;7.690;2024-01-25T02:52:29;5.50;99.90
61412;DHT22;47278;49.732;7.690;2024-01-25T02:54:55;5.50;99.90
61412;DHT22;47278;49.732;7.690;2024-01-25T02:57:22;5.20;99.90
61412;DHT22;47278;49.732;7.690;2024-01-25T02:59:48;5.00;99.90
61412;DHT22;47278;49.732;7.690;2024-01-25T03:02:13;4.90;99.90
61412;DHT22;47278;49.732;7.690;2024-01-25T03:04:39;4.80;99.90
61412;DHT22;47278;49.732;7.690;2024-01-25T03:07:04;4.80;99.90
61412;DHT22;47278;49.732;7.690;2024-01-25T03:09:30;4.70;99.90
61412;DHT22;47278;49.732;7.690;2024-01-25T03:11:56;4.70;99.90
61412;DHT22;47278;49.732;7.690;2024-01-25T03:14:22;4.70;99.90
61412;DHT22;47278;49.732;7.690;2024-01-25T03:16:48;4.60;99.90
61412;DHT22;47278;49.732;7.690;2024-01-25T03:19:13;4.50;99.90
61412;DHT22;47278;49.732;7.690;2024-01-25T03:21:40;4.50;99.90
61412;DHT22;47278;49.732;7.690;2024-01-25T03:24:05;4.70;99.90
61412;DHT22;47278;49.732;7.690;2024-01-25T03:26:32;4.40;99.90
61412;DHT22;47278;49.732;7.690;2024-01-25T03:28:57;4.30;99.90
61412;DHT22;47278;49.732;7.690;2024-01-25T03:31:23;4.30;99.90
61412;DHT22;47278;49.732;7.690;2024-01-25T03:33:49;4.50;99.90
61412;DHT22;47278;49.732;7.690;2024-01-25T03:36:15;4.50;99.90
61412;DHT22;47278;49.732;7.690;2024-01-25T03:38:43;4.20;99.90
61412;DHT22;47278;49.732;7.690;2024-01-25T03:41:09;4.30;99.90
61412;DHT22;47278;49.732;7.690;2024-01-25T03:43:35;4.40;99.90
61412;DHT22;47278;49.732;7.690;2024-01-25T03:46:01;4.30;99.90
61412;DHT22;47278;49.732;7.690;2024-01-25T03:48:27;4.50;99.90
61412;DHT22;47278;49.732;7.690;2024-01-25T03:50:53;4.40;99.90
61412;DHT22;47278;49.732;7.690;2024-01-25T03:53:22;4.30;99.90
61412;DHT22;47278;49.732;7.690;2024-01-25T03:55:47;4.30;99.90
61412;DHT22;47278;49.732;7.690;2024-01-25T03:58:14;3.80;99.90
61412;DHT22;47278;49.732;7.690;2024-01-25T04:00:40;3.80;99.90
61412;DHT22;47278;49.732;7.690;2024-01-25T04:03:06;3.70;99.90
61412;DHT22;47278;49.732;7.690;2024-01-25T04:05:31;4.00;99.90
61412;DHT22;47278;49.732;7.690;2024-01-25T04:07:58;4.10;99.90
61412;DHT22;47278;49.732;7.690;2024-01-25T04:10:24;4.00;99.90
61412;DHT22;47278;49.732;7.690;2024-01-25T04:12:51;3.80;99.90
61412;DHT22;47278;49.732;7.690;2024-01-25T04:15:18;3.80;99.90
61412;DHT22;47278;49.732;7.690;2024-01-25T04:17:44;4.00;99.90
61412;DHT22;47278;49.732;7.690;2024-01-25T04:20:10;4.10;99.90
61412;DHT22;47278;49.732;7.690;2024-01-25T04:22:35;4.30;99.90
61412;DHT22;47278;49.732;7.690;2024-01-25T04:25:01;4.20;99.90
61412;DHT22;47278;49.732;7.690;2024-01-25T04:27:27;4.00;99.90
61412;DHT22;47278;49.732;7.690;2024-01-25T04:29:52;4.10;99.90
61412;DHT22;47278;49.732;7.690;2024-01-25T04:32:18;4.20;99.90
61412;DHT22;47278;49.732;7.690;2024-01-25T04:34:44;4.20;99.90
61412;DHT22;47278;49.732;7.690;2024-01-25T04:37:09;4.30;99.90
61412;DHT22;47278;49.732;7.690;2024-01-25T04:39:35;4.20;99.90
61412;DHT22;47278;49.732;7.690;2024-01-25T04:42:00;4.30;99.90
61412;DHT22;47278;49.732;7.690;2024-01-25T04:44:26;4.30;99.90
61412;DHT22;47278;49.732;7.690;2024-01-25T04:46:52;4.30;99.90
61412;DHT22;47278;49.732;7.690;2024-01-25T04:49:19;4.30;99.90
61412;DHT22;47278;49.732;7.690;2024-01-25T04:51:45;4.40;99.90
61412;DHT22;47278;49.732;7.690;2024-01-25T04:54:10;4.50;99.90
61412;DHT22;47278;49.732;7.690;2024-01-25T04:56:38;4.30;99.90
61412;DHT22;47278;49.732;7.690;2024-01-25T04:59:04;4.10;99.90
61412;DHT22;47278;49.732;7.690;2024-01-25T05:01:30;4.10;99.90
61412;DHT22;47278;49.732;7.690;2024-01-25T05:03:56;4.00;99.90
61412;DHT22;47278;49.732;7.690;2024-01-25T05:06:22;3.90;99.90
61412;DHT22;47278;49.732;7.690;2024-01-25T05:08:47;3.80;99.90
61412;DHT22;47278;49.732;7.690;2024-01-25T05:11:13;3.70;99.90
61412;DHT22;47278;49.732;7.690;2024-01-25T05:13:38;3.60;99.90
61412;DHT22;47278;49.732;7.690;2024-01-25T05:16:04;3.60;99.90
61412;DHT22;47278;49.732;7.690;2024-01-25T05:18:30;3.60;99.90
61412;DHT22;47278;49.732;7.690;2024-01-25T05:20:56;3.50;99.90
61412;DHT22;47278;49.732;7.690;2024-01-25T05:23:23;3.40;99.90
61412;DHT22;47278;49.732;7.690;2024-01-25T05:25:50;3.20;99.90
61412;DHT22;47278;49.732;7.690;2024-01-25T05:28:15;3.10;99.90
61412;DHT22;47278;49.732;7.690;2024-01-25T05:30:41;3.00;99.90
61412;DHT22;47278;49.732;7.690;2024-01-25T05:33:07;3.00;99.90
61412;DHT22;47278;49.732;7.690;2024-01-25T05:35:33;3.00;99.90
61412;DHT22;47278;49.732;7.690;2024-01-25T05:38:00;2.90;99.90
61412;DHT22;47278;49.732;7.690;2024-01-25T05:40:25;2.90;99.90
61412;DHT22;47278;49.732;7.690;2024-01-25T05:42:51;2.80;99.90
61412;DHT22;47278;49.732;7.690;2024-01-25T05:45:16;3.00;99.90
61412;DHT22;47278;49.732;7.690;2024-01-25T05:47:45;3.20;99.90
61412;DHT22;47278;49.732;7.690;2024-01-25T05:50:10;3.00;99.90
61412;DHT22;47278;49.732;7.690;2024-01-25T05:52:36;2.80;99.90
61412;DHT22;47278;49.732;7.690;2024-01-25T05:55:05;2.90;99.90
61412;DHT22;47278;49.732;7.690;2024-01-25T05:57:31;2.80;99.90
61412;DHT22;47278;49.732;7.690;2024-01-25T05:59:57;2.70;99.90
61412;DHT22;47278;49.732;7.690;2024-01-25T06:02:22;2.70;99.90
61412;DHT22;47278;49.732;7.690;2024-01-25T06:04:48;2.80;99.90
61412;DHT22;47278;49.732;7.690;2024-01-25T06:07:13;2.80;99.90
61412;DHT22;47278;49.732;7.690;2024-01-25T06:09:40;2.50;99.90
61412;DHT22;47278;49.732;7.690;2024-01-25T06:12:05;2.40;99.90
61412;DHT22;47278;49.732;7.690;2024-01-25T06:14:31;2.40;99.90
61412;DHT22;47278;49.732;7.690;2024-01-25T06:16:57;2.40;99.90
61412;DHT22;47278;49.732;7.690;2024-01-25T06:19:23;2.40;99.90
61412;DHT22;47278;49.732;7.690;2024-01-25T06:21:49;2.30;99.90
61412;DHT22;47278;49.732;7.690;2024-01-25T06:24:16;2.70;99.90
61412;DHT22;47278;49.732;7.690;2024-01-25T06:26:41;2.50;99.90
61412;DHT22;47278;49.732;7.690;2024-01-25T06:29:07;2.30;99.90
61412;DHT22;47278;49.732;7.690;2024-01-25T06:31:39;2.30;99.90
61412;DHT22;47278;49.732;7.690;2024-01-25T06:34:05;2.20;99.90
61412;DHT22;47278;49.732;7.690;2024-01-25T06:36:32;2.30;99.90
61412;DHT22;47278;49.732;7.690;2024-01-25T06:38:58;2.30;99.90
61412;DHT22;47278;49.732;7.690;2024-01-25T06:41:23;2.20;99.90
61412;DHT22;47278;49.732;7.690;2024-01-25T06:43:50;2.10;99.90
61412;DHT22;47278;49.732;7.690;2024-01-25T06:46:15;2.00;99.90
61412;DHT22;47278;49.732;7.690;2024-01-25T06:48:41;1.90;99.90
61412;DHT22;47278;49.732;7.690;2024-01-25T06:51:07;1.80;99.90
61412;DHT22;47278;49.732;7.690;2024-01-25T06:53:33;1.90;99.90
61412;DHT22;47278;49.732;7.690;2024-01-25T06:55:58;1.90;99.90
61412;DHT22;47278;49.732;7.690;2024-01-25T06:58:24;1.90;99.90
61412;DHT22;47278;49.732;7.690;2024-01-25T07:00:49;1.90;99.90
61412;DHT22;47278;49.732;7.690;2024-01-25T07:03:15;1.90;99.90
61412;DHT22;47278;49.732;7.690;2024-01-25T07:05:41;1.90;99.90
61412;DHT22;47278;49.732;7.690;2024-01-25T07:08:07;1.90;99.90
61412;DHT22;47278;49.732;7.690;2024-01-25T07:10:38;1.80;99.90
61412;DHT22;47278;49.732;7.690;2024-01-25T07:13:03;1.70;99.90
61412;DHT22;47278;49.732;7.690;2024-01-25T07:15:30;1.70;99.90
61412;DHT22;47278;49.732;7.690;2024-01-25T07:17:55;1.60;99.90
61412;DHT22;47278;49.732;7.690;2024-01-25T07:20:21;1.60;99.90
61412;DHT22;47278;49.732;7.690;2024-01-25T07:22:48;1.60;99.90
61412;DHT22;47278;49.732;7.690;2024-01-25T07:25:14;1.70;99.90
61412;DHT22;47278;49.732;7.690;2024-01-25T07:27:43;1.60;99.90
61412;DHT22;47278;49.732;7.690;2024-01-25T07:30:09;1.50;99.90
61412;DHT22;47278;49.732;7.690;2024-01-25T07:32:36;1.50;99.90
61412;DHT22;47278;49.732;7.690;2024-01-25T07:35:03;1.50;99.90
61412;DHT22;47278;49.732;7.690;2024-01-25T07:37:29;1.60;99.90
61412;DHT22;47278;49.732;7.690;2024-01-25T07:42:57;1.80;99.90
61412;DHT22;47278;49.732;7.690;2024-01-25T07:45:23;1.80;99.90
61412;DHT22;47278;49.732;7.690;2024-01-25T07:47:48;1.80;99.90
61412;DHT22;47278;49.732;7.690;2024-01-25T07:50:14;1.50;99.90
61412;DHT22;47278;49.732;7.690;2024-01-25T07:52:39;1.60;99.90
61412;DHT22;47278;49.732;7.690;2024-01-25T07:55:06;1.70;99.90
61412;DHT22;47278;49.732;7.690;2024-01-25T07:57:32;1.80;99.90
61412;DHT22;47278;49.732;7.690;2024-01-25T07:59:58;1.80;99.90
61412;DHT22;47278;49.732;7.690;2024-01-25T08:02:24;1.90;99.90
61412;DHT22;47278;49.732;7.690;2024-01-25T08:04:50;1.90;99.90
61412;DHT22;47278;49.732;7.690;2024-01-25T08:07:15;1.90;99.90
61412;DHT22;47278;49.732;7.690;2024-01-25T08:09:41;2.00;99.90
61412;DHT22;47278;49.732;7.690;2024-01-25T08:12:08;2.20;99.90
61412;DHT22;47278;49.732;7.690;2024-01-25T08:14:33;2.30;99.90
61412;DHT22;47278;49.732;7.690;2024-01-25T08:16:59;2.40;99.90
61412;DHT22;47278;49.732;7.690;2024-01-25T08:19:25;2.50;99.90
61412;DHT22;47278;49.732;7.690;2024-01-25T08:21:51;2.40;99.90
61412;DHT22;47278;49.732;7.690;2024-01-25T08:24:16;2.30;99.90
61412;DHT22;47278;49.732;7.690;2024-01-25T08:26:42;2.40;99.90
61412;DHT22;47278;49.732;7.690;2024-01-25T08:29:09;2.50;99.90
61412;DHT22;47278;49.732;7.690;2024-01-25T08:31:34;2.50;99.90
61412;DHT22;47278;49.732;7.690;2024-01-25T08:34:00;2.60;99.90
61412;DHT22;47278;49.732;7.690;2024-01-25T08:36:25;2.80;99.90
61412;DHT22;47278;49.732;7.690;2024-01-25T08:38:51;2.90;99.90
61412;DHT22;47278;49.732;7.690;2024-01-25T08:41:16;2.90;99.90
61412;DHT22;47278;49.732;7.690;2024-01-25T08:43:42;2.90;99.90
61412;DHT22;47278;49.732;7.690;2024-01-25T08:46:07;2.80;99.90
61412;DHT22;47278;49.732;7.690;2024-01-25T08:48:33;3.00;99.90
61412;DHT22;47278;49.732;7.690;2024-01-25T08:50:59;3.00;99.90
61412;DHT22;47278;49.732;7.690;2024-01-25T08:53:25;3.10;99.90
61412;DHT22;47278;49.732;7.690;2024-01-25T08:55:55;3.10;99.90
61412;DHT22;47278;49.732;7.690;2024-01-25T08:58:21;3.10;99.90
61412;DHT22;47278;49.732;7.690;2024-01-25T09:00:47;3.10;99.90
61412;DHT22;47278;49.732;7.690;2024-01-25T09:03:12;3.20;99.90
61412;DHT22;47278;49.732;7.690;2024-01-25T09:05:38;3.30;99.90
61412;DHT22;47278;49.732;7.690;2024-01-25T09:08:11;3.40;99.90
61412;DHT22;47278;49.732;7.690;2024-01-25T09:10:37;3.50;99.90
61412;DHT22;47278;49.732;7.690;2024-01-25T09:13:02;3.60;99.90
61412;DHT22;47278;49.732;7.690;2024-01-25T09:15:28;3.70;99.90
61412;DHT22;47278;49.732;7.690;2024-01-25T09:17:53;3.80;99.90
61412;DHT22;47278;49.732;7.690;2024-01-25T09:20:19;3.90;99.90
61412;DHT22;47278;49.732;7.690;2024-01-25T09:22:45;3.90;99.90
61412;DHT22;47278;49.732;7.690;2024-01-25T09:25:11;4.00;99.90
61412;DHT22;47278;49.732;7.690;2024-01-25T09:27:37;4.20;99.90
61412;DHT22;47278;49.732;7.690;2024-01-25T09:30:04;4.30;99.90
61412;DHT22;47278;49.732;7.690;2024-01-25T09:32:30;4.60;99.90
61412;DHT22;47278;49.732;7.690;2024-01-25T09:34:55;4.70;99.90
61412;DHT22;47278;49.732;7.690;2024-01-25T09:37:21;5.20;99.90
61412;DHT22;47278;49.732;7.690;2024-01-25T09:39:49;5.60;99.90
61412;DHT22;47278;49.732;7.690;2024-01-25T09:42:16;6.50;99.90
61412;DHT22;47278;49.732;7.690;2024-01-25T09:44:43;5.90;99.90
61412;DHT22;47278;49.732;7.690;2024-01-25T09:47:09;6.20;99.90
61412;DHT22;47278;49.732;7.690;2024-01-25T09:49:36;6.40;99.90
61412;DHT22;47278;49.732;7.690;2024-01-25T09:52:02;6.80;99.90
61412;DHT22;47278;49.732;7.690;2024-01-25T09:54:32;7.10;99.90
61412;DHT22;47278;49.732;7.690;2024-01-25T09:56:59;7.40;99.90
61412;DHT22;47278;49.732;7.690;2024-01-25T09:59:25;7.70;99.90
61412;DHT22;47278;49.732;7.690;2024-01-25T10:01:51;8.10;99.90
61412;DHT22;47278;49.732;7.690;2024-01-25T10:04:17;7.90;99.90
61412;DHT22;47278;49.732;7.690;2024-01-25T10:06:47;7.90;99.90
61412;DHT22;47278;49.732;7.690;2024-01-25T10:09:13;8.00;99.90
61412;DHT22;47278;49.732;7.690;2024-01-25T10:11:39;7.90;99.90
61412;DHT22;47278;49.732;7.690;2024-01-25T10:14:06;7.90;99.90
61412;DHT22;47278;49.732;7.690;2024-01-25T10:16:33;8.00;99.90
61412;DHT22;47278;49.732;7.690;2024-01-25T10:19:00;8.30;99.90
61412;DHT22;47278;49.732;7.690;2024-01-25T10:21:27;8.60;99.90
61412;DHT22;47278;49.732;7.690;2024-01-25T10:23:54;8.80;99.90
61412;DHT22;47278;49.732;7.690;2024-01-25T10:26:26;9.10;99.90
61412;DHT22;47278;49.732;7.690;2024-01-25T10:28:54;9.20;99.90
61412;DHT22;47278;49.732;7.690;2024-01-25T10:31:23;9.40;99.90
61412;DHT22;47278;49.732;7.690;2024-01-25T10:33:51;9.50;99.90
61412;DHT22;47278;49.732;7.690;2024-01-25T10:36:18;9.60;99.90
61412;DHT22;47278;49.732;7.690;2024-01-25T10:38:45;9.70;99.90
61412;DHT22;47278;49.732;7.690;2024-01-25T10:41:13;9.70;99.90
61412;DHT22;47278;49.732;7.690;2024-01-25T10:43:39;10.20;99.90
61412;DHT22;47278;49.732;7.690;2024-01-25T10:46:05;10.00;99.90
61412;DHT22;47278;49.732;7.690;2024-01-25T10:48:31;10.10;99.90
61412;DHT22;47278;49.732;7.690;2024-01-25T10:50:57;10.30;99.90
61412;DHT22;47278;49.732;7.690;2024-01-25T10:53:36;10.50;99.90
61412;DHT22;47278;49.732;7.690;2024-01-25T10:56:02;10.50;99.90
61412;DHT22;47278;49.732;7.690;2024-01-25T10:58:31;10.70;99.90
61412;DHT22;47278;49.732;7.690;2024-01-25T11:01:00;10.70;99.90
61412;DHT22;47278;49.732;7.690;2024-01-25T11:03:27;10.80;99.90
61412;DHT22;47278;49.732;7.690;2024-01-25T11:06:09;10.70;99.90
61412;DHT22;47278;49.732;7.690;2024-01-25T11:08:35;10.60;99.90
61412;DHT22;47278;49.732;7.690;2024-01-25T11:11:05;10.80;99.90
61412;DHT22;47278;49.732;7.690;2024-01-25T11:13:31;10.80;99.90
61412;DHT22;47278;49.732;7.690;2024-01-25T11:15:57;11.00;99.90
61412;DHT22;47278;49.732;7.690;2024-01-25T11:18:24;11.10;99.90
61412;DHT22;47278;49.732;7.690;2024-01-25T11:20:50;11.30;99.90
61412;DHT22;47278;49.732;7.690;2024-01-25T11:23:16;11.40;99.90
61412;DHT22;47278;49.732;7.690;2024-01-25T11:25:44;11.50;99.90
61412;DHT22;47278;49.732;7.690;2024-01-25T11:28:11;13.60;99.90
61412;DHT22;47278;49.732;7.690;2024-01-25T11:30:36;11.60;99.90
61412;DHT22;47278;49.732;7.690;2024-01-25T11:33:08;11.80;99.90
61412;DHT22;47278;49.732;7.690;2024-01-25T11:35:35;11.90;99.90
61412;DHT22;47278;49.732;7.690;2024-01-25T11:38:00;12.00;99.90
61412;DHT22;47278;49.732;7.690;2024-01-25T11:40:26;11.70;99.90
61412;DHT22;47278;49.732;7.690;2024-01-25T11:42:56;12.00;99.90
61412;DHT22;47278;49.732;7.690;2024-01-25T11:45:22;12.20;99.90
61412;DHT22;47278;49.732;7.690;2024-01-25T11:47:48;12.20;99.90
61412;DHT22;47278;49.732;7.690;2024-01-25T11:50:13;12.50;99.90
61412;DHT22;47278;49.732;7.690;2024-01-25T11:52:39;12.50;99.90
61412;DHT22;47278;49.732;7.690;2024-01-25T11:55:06;12.60;99.90
61412;DHT22;47278;49.732;7.690;2024-01-25T11:57:34;12.70;99.90
61412;DHT22;47278;49.732;7.690;2024-01-25T12:00:00;12.80;99.90
61412;DHT22;47278;49.732;7.690;2024-01-25T12:02:26;12.90;99.90
61412;DHT22;47278;49.732;7.690;2024-01-25T12:04:52;12.80;99.90
61412;DHT22;47278;49.732;7.690;2024-01-25T12:07:21;12.70;99.90
61412;DHT22;47278;49.732;7.690;2024-01-25T12:10:02;12.50;99.90
61412;DHT22;47278;49.732;7.690;2024-01-25T12:12:28;12.80;99.90
61412;DHT22;47278;49.732;7.690;2024-01-25T12:14:57;13.10;99.90
61412;DHT22;47278;49.732;7.690;2024-01-25T12:17:23;13.10;99.90
61412;DHT22;47278;49.732;7.690;2024-01-25T12:19:48;13.20;99.90
61412;DHT22;47278;49.732;7.690;2024-01-25T12:22:19;13.40;99.90
61412;DHT22;47278;49.732;7.690;2024-01-25T12:24:46;13.20;99.90
61412;DHT22;47278;49.732;7.690;2024-01-25T12:27:14;13.20;99.90
61412;DHT22;47278;49.732;7.690;2024-01-25T12:29:40;13.10;99.90
61412;DHT22;47278;49.732;7.690;2024-01-25T12:32:06;12.90;99.90
61412;DHT22;47278;49.732;7.690;2024-01-25T12:34:33;12.80;99.90
61412;DHT22;47278;49.732;7.690;2024-01-25T12:36:58;12.80;99.90
61412;DHT22;47278;49.732;7.690;2024-01-25T12:39:24;12.80;99.90
61412;DHT22;47278;49.732;7.690;2024-01-25T12:41:50;12.50;99.90
61412;DHT22;47278;49.732;7.690;2024-01-25T12:44:16;12.80;99.90
61412;DHT22;47278;49.732;7.690;2024-01-25T12:46:42;12.60;99.90
61412;DHT22;47278;49.732;7.690;2024-01-25T12:49:07;12.60;99.90
61412;DHT22;47278;49.732;7.690;2024-01-25T12:51:33;12.60;99.90
61412;DHT22;47278;49.732;7.690;2024-01-25T12:53:59;12.70;99.90
61412;DHT22;47278;49.732;7.690;2024-01-25T12:56:24;12.60;99.90
61412;DHT22;47278;49.732;7.690;2024-01-25T12:58:50;12.70;99.90
61412;DHT22;47278;49.732;7.690;2024-01-25T13:01:15;12.60;99.90
61412;DHT22;47278;49.732;7.690;2024-01-25T13:03:41;12.50;99.90
61412;DHT22;47278;49.732;7.690;2024-01-25T13:06:06;12.50;99.90
61412;DHT22;47278;49.732;7.690;2024-01-25T13:08:32;12.50;99.90
61412;DHT22;47278;49.732;7.690;2024-01-25T13:10:58;12.40;99.90
61412;DHT22;47278;49.732;7.690;2024-01-25T13:13:24;12.60;99.90
61412;DHT22;47278;49.732;7.690;2024-01-25T13:15:51;12.70;99.90
61412;DHT22;47278;49.732;7.690;2024-01-25T13:18:16;12.60;99.90
61412;DHT22;47278;49.732;7.690;2024-01-25T13:20:42;12.50;99.90
61412;DHT22;47278;49.732;7.690;2024-01-25T13:23:07;12.70;99.90
61412;DHT22;47278;49.732;7.690;2024-01-25T13:25:33;12.70;99.90
61412;DHT22;47278;49.732;7.690;2024-01-25T13:27:59;12.80;99.90
61412;DHT22;47278;49.732;7.690;2024-01-25T13:30:24;12.50;99.90
61412;DHT22;47278;49.732;7.690;2024-01-25T13:32:50;12.40;99.90
61412;DHT22;47278;49.732;7.690;2024-01-25T13:35:15;12.50;99.90
61412;DHT22;47278;49.732;7.690;2024-01-25T13:37:42;12.40;99.90
61412;DHT22;47278;49.732;7.690;2024-01-25T13:40:08;12.50;99.90
61412;DHT22;47278;49.732;7.690;2024-01-25T13:42:33;12.50;99.90
61412;DHT22;47278;49.732;7.690;2024-01-25T13:44:59;12.50;99.90
61412;DHT22;47278;49.732;7.690;2024-01-25T13:47:24;12.70;99.90
61412;DHT22;47278;49.732;7.690;2024-01-25T13:49:50;12.50;99.90
61412;DHT22;47278;49.732;7.690;2024-01-25T13:52:19;12.50;99.90
61412;DHT22;47278;49.732;7.690;2024-01-25T13:54:47;12.30;99.90
61412;DHT22;47278;49.732;7.690;2024-01-25T13:57:15;12.30;99.90
61412;DHT22;47278;49.732;7.690;2024-01-25T13:59:40;12.30;99.90
61412;DHT22;47278;49.732;7.690;2024-01-25T14:02:06;12.30;99.90
61412;DHT22;47278;49.732;7.690;2024-01-25T14:04:33;12.10;99.90
61412;DHT22;47278;49.732;7.690;2024-01-25T14:06:58;11.90;99.90
61412;DHT22;47278;49.732;7.690;2024-01-25T14:09:24;11.90;99.90
61412;DHT22;47278;49.732;7.690;2024-01-25T14:11:49;11.90;99.90
61412;DHT22;47278;49.732;7.690;2024-01-25T14:14:15;11.90;99.90
61412;DHT22;47278;49.732;7.690;2024-01-25T14:16:40;11.90;99.90
61412;DHT22;47278;49.732;7.690;2024-01-25T14:19:06;11.80;99.90
61412;DHT22;47278;49.732;7.690;2024-01-25T14:21:31;11.90;99.90
61412;DHT22;47278;49.732;7.690;2024-01-25T14:23:57;11.70;99.90
61412;DHT22;47278;49.732;7.690;2024-01-25T14:26:23;11.70;99.90
61412;DHT22;47278;49.732;7.690;2024-01-25T14:28:48;11.60;99.90
61412;DHT22;47278;49.732;7.690;2024-01-25T14:31:14;11.50;99.90
61412;DHT22;47278;49.732;7.690;2024-01-25T14:33:39;11.50;99.90
61412;DHT22;47278;49.732;7.690;2024-01-25T14:36:07;11.40;99.90
61412;DHT22;47278;49.732;7.690;2024-01-25T14:38:33;11.30;99.90
61412;DHT22;47278;49.732;7.690;2024-01-25T14:40:59;11.30;99.90
61412;DHT22;47278;49.732;7.690;2024-01-25T14:43:25;11.30;99.90
61412;DHT22;47278;49.732;7.690;2024-01-25T14:45:50;11.10;99.90
61412;DHT22;47278;49.732;7.690;2024-01-25T14:48:17;11.10;99.90
61412;DHT22;47278;49.732;7.690;2024-01-25T14:50:45;11.10;99.90
61412;DHT22;47278;49.732;7.690;2024-01-25T14:53:10;11.10;99.90
61412;DHT22;47278;49.732;7.690;2024-01-25T14:55:36;11.00;99.90
61412;DHT22;47278;49.732;7.690;2024-01-25T14:58:02;11.00;99.90
61412;DHT22;47278;49.732;7.690;2024-01-25T15:00:28;11.00;99.90
61412;DHT22;47278;49.732;7.690;2024-01-25T15:02:54;11.00;99.90
61412;DHT22;47278;49.732;7.690;2024-01-25T15:05:22;10.80;99.90
61412;DHT22;47278;49.732;7.690;2024-01-25T15:07:49;10.80;99.90
61412;DHT22;47278;49.732;7.690;2024-01-25T15:10:14;10.90;99.90
61412;DHT22;47278;49.732;7.690;2024-01-25T15:12:41;10.80;99.90
61412;DHT22;47278;49.732;7.690;2024-01-25T15:15:07;10.90;99.90
61412;DHT22;47278;49.732;7.690;2024-01-25T15:17:33;10.80;99.90
61412;DHT22;47278;49.732;7.690;2024-01-25T15:19:58;10.80;99.90
61412;DHT22;47278;49.732;7.690;2024-01-25T15:22:25;10.80;99.90
61412;DHT22;47278;49.732;7.690;2024-01-25T15:24:54;10.70;99.90
61412;DHT22;47278;49.732;7.690;2024-01-25T15:27:20;10.70;99.90
61412;DHT22;47278;49.732;7.690;2024-01-25T15:29:46;10.70;99.90
61412;DHT22;47278;49.732;7.690;2024-01-25T15:32:12;10.70;99.90
61412;DHT22;47278;49.732;7.690;2024-01-25T15:34:39;10.60;99.90
61412;DHT22;47278;49.732;7.690;2024-01-25T15:37:05;10.60;99.90